createdAt,value
2022-12-17T11:08:57.378Z,2.90
2022-12-17T11:14:10.329Z,2.90
2022-12-17T11:19:45.559Z,3.20
2022-12-17T11:25:03.317Z,3.40
2022-12-17T11:30:14.214Z,3.40
2022-12-17T11:35:35.148Z,3.50
2022-12-17T11:40:52.705Z,3.50
2022-12-17T11:46:15.282Z,3.40
2022-12-17T11:51:35.552Z,3.20
2022-12-17T11:56:52.409Z,3.30
2022-12-17T12:02:13.423Z,3.40
2022-12-17T12:07:32.104Z,3.40
2022-12-17T12:12:57.462Z,3.30
2022-12-17T12:18:16.305Z,3.30
2022-12-17T12:23:37.830Z,3.50
2022-12-17T12:28:58.890Z,3.50
2022-12-17T12:34:15.412Z,3.40
2022-12-17T12:39:30.775Z,3.60
2022-12-17T12:44:49.923Z,4.70
2022-12-17T12:50:08.434Z,5.90
2022-12-17T12:55:19.489Z,7.00
2022-12-17T13:00:58.026Z,7.30
2022-12-17T13:05:50.350Z,7.60
2022-12-17T13:10:43.925Z,7.70
2022-12-17T13:15:45.182Z,7.70
2022-12-17T13:25:47.578Z,7.20
2022-12-17T13:30:43.088Z,7.40
2022-12-17T13:35:43.567Z,7.60
2022-12-17T13:40:45.914Z,6.90
2022-12-17T13:45:48.784Z,5.90
2022-12-17T13:50:42.285Z,5.30
2022-12-17T13:55:36.135Z,4.80
2022-12-17T14:00:31.511Z,4.40
2022-12-17T14:05:30.852Z,3.90
2022-12-17T14:10:24.477Z,3.40
2022-12-17T14:15:26.253Z,3.00
2022-12-17T14:20:24.453Z,2.90
2022-12-17T14:25:22.187Z,2.70
2022-12-17T14:30:25.168Z,2.60
2022-12-17T14:35:27.159Z,2.50
2022-12-17T14:40:23.536Z,2.50
2022-12-17T14:45:26.046Z,2.40
2022-12-17T14:50:31.865Z,2.20
2022-12-17T14:55:36.176Z,2.00
2022-12-17T15:00:31.700Z,1.80
2022-12-17T15:05:25.232Z,1.70
2022-12-17T15:10:21.569Z,1.60
2022-12-17T15:15:17.646Z,1.60
2022-12-17T15:20:18.742Z,1.60
